Time;durP1;ratioP1;P1;durP2;ratioP2;P2;SDS_P1;SDS_P2;PMS_P1;PMS_P2;Temp;Humidity;BMP_temperature;BMP_pressure;BME280_temperature;BME280_humidity;BME280_pressure;Samples;Min_cycle;Max_cycle;Signal;HPM_P1;HPM_P2
2024/01/21 00:00:59;;;;;;;7.18;3.70;;;1.40;75.30;;;;;;4983111;28;20019;-64
2024/01/21 00:03:24;;;;;;;8.20;4.55;;;1.40;75.20;;;;;;4984801;28;20029;-66
2024/01/21 00:05:50;;;;;;;9.90;5.10;;;1.30;75.10;;;;;;4982160;28;21645;-68
2024/01/21 00:08:15;;;;;;;7.75;4.40;;;1.30;75.30;;;;;;4983679;28;20076;-65
2024/01/21 00:10:41;;;;;;;7.28;4.07;;;1.30;75.40;;;;;;4985538;28;20058;-64
2024/01/21 00:13:06;;;;;;;7.32;4.00;;;1.30;75.20;;;;;;4986443;28;20026;-69
2024/01/21 00:15:32;;;;;;;8.23;4.05;;;1.30;75.30;;;;;;4984165;28;20420;-68
2024/01/21 00:17:58;;;;;;;6.93;4.30;;;1.40;75.50;;;;;;4983521;28;20130;-70
2024/01/21 00:20:23;;;;;;;5.95;3.78;;;1.30;75.30;;;;;;4984617;28;20018;-63
2024/01/21 00:22:49;;;;;;;7.35;3.80;;;1.30;75.50;;;;;;4980602;28;20041;-66
2024/01/21 00:25:15;;;;;;;7.57;4.15;;;1.40;75.50;;;;;;4981563;28;20473;-68
2024/01/21 00:27:40;;;;;;;5.85;3.55;;;1.40;75.50;;;;;;4982430;28;20061;-64
2024/01/21 00:30:06;;;;;;;5.95;3.38;;;1.40;75.30;;;;;;4986659;28;20105;-69
2024/01/21 00:32:32;;;;;;;6.45;3.70;;;1.40;75.40;;;;;;4985370;28;20209;-64
2024/01/21 00:34:57;;;;;;;6.15;3.60;;;1.40;75.40;;;;;;4985111;28;20027;-65
2024/01/21 00:37:23;;;;;;;6.65;3.33;;;1.40;75.40;;;;;;4987056;28;20026;-67
2024/01/21 00:39:49;;;;;;;6.57;3.70;;;1.50;75.50;;;;;;4985128;28;21002;-67
2024/01/21 00:42:15;;;;;;;6.68;3.70;;;1.40;75.40;;;;;;4978973;28;20033;-69
2024/01/21 00:44:40;;;;;;;8.13;4.07;;;1.40;75.30;;;;;;4980122;28;20437;-65
2024/01/21 00:47:06;;;;;;;7.78;4.18;;;1.30;75.30;;;;;;4987895;28;20064;-71
2024/01/21 00:49:32;;;;;;;9.35;4.93;;;1.30;75.60;;;;;;4988550;28;20057;-66
2024/01/21 00:51:58;;;;;;;7.22;4.07;;;1.40;75.10;;;;;;4989186;28;20492;-65
2024/01/21 00:54:24;;;;;;;8.77;4.95;;;1.40;75.20;;;;;;4989203;28;20038;-67
2024/01/21 00:56:49;;;;;;;7.80;4.25;;;1.40;74.90;;;;;;4988313;28;20033;-67
2024/01/21 00:59:15;;;;;;;8.38;4.15;;;1.40;74.60;;;;;;4988587;28;20041;-65
2024/01/21 01:01:40;;;;;;;6.78;3.72;;;1.40;74.60;;;;;;4985902;28;20171;-66
2024/01/21 01:04:06;;;;;;;7.72;3.70;;;1.40;74.70;;;;;;4989087;28;20065;-66
2024/01/21 01:06:32;;;;;;;6.90;3.65;;;1.40;74.70;;;;;;4989046;28;20058;-65
2024/01/21 01:08:58;;;;;;;6.13;3.40;;;1.40;74.70;;;;;;4990833;28;20088;-66
2024/01/21 01:11:24;;;;;;;6.15;3.60;;;1.40;74.70;;;;;;4987389;28;20025;-66
2024/01/21 01:13:50;;;;;;;8.02;4.07;;;1.40;74.70;;;;;;4989117;28;20184;-65
2024/01/21 01:16:16;;;;;;;6.20;3.53;;;1.40;74.50;;;;;;4987476;28;20026;-66
2024/01/21 01:18:42;;;;;;;6.05;3.35;;;1.50;74.50;;;;;;4985696;28;20050;-67
2024/01/21 01:21:11;;;;;;;5.00;3.13;;;1.40;74.40;;;;;;4990517;28;20073;-70
2024/01/21 01:23:36;;;;;;;6.40;3.63;;;1.40;74.40;;;;;;4982953;28;20397;-65
2024/01/21 01:26:02;;;;;;;6.47;3.95;;;1.50;74.10;;;;;;4986326;28;20029;-65
2024/01/21 01:28:28;;;;;;;5.95;3.50;;;1.40;74.10;;;;;;4986485;28;20048;-66
2024/01/21 01:30:54;;;;;;;6.90;3.80;;;1.40;73.90;;;;;;4987459;28;20033;-68
2024/01/21 01:33:20;;;;;;;6.35;3.35;;;1.40;73.90;;;;;;4984549;28;20129;-67
2024/01/21 01:35:45;;;;;;;7.10;3.50;;;1.30;73.80;;;;;;4983563;28;20026;-65
2024/01/21 01:38:13;;;;;;;5.63;3.40;;;1.30;73.90;;;;;;4987912;28;20082;-65
2024/01/21 01:40:38;;;;;;;5.40;2.97;;;1.20;74.00;;;;;;4985313;28;20023;-65
2024/01/21 01:43:05;;;;;;;5.63;3.22;;;1.20;74.30;;;;;;4987522;28;20508;-66
2024/01/21 01:45:32;;;;;;;5.15;3.10;;;1.10;74.20;;;;;;4986180;28;20022;-66
2024/01/21 01:47:58;;;;;;;5.65;3.35;;;1.20;74.20;;;;;;4986245;28;20122;-66
2024/01/21 01:50:25;;;;;;;6.80;4.00;;;1.20;74.00;;;;;;4984464;28;20046;-66
2024/01/21 01:52:51;;;;;;;6.93;4.18;;;1.10;73.70;;;;;;4989440;28;20030;-68
2024/01/21 01:55:18;;;;;;;7.30;4.05;;;1.10;74.00;;;;;;4984815;28;20508;-66
2024/01/21 01:57:47;;;;;;;6.70;4.00;;;1.10;73.80;;;;;;4988269;28;20022;-65
2024/01/21 02:00:14;;;;;;;8.13;4.50;;;1.10;73.50;;;;;;4988743;28;20030;-66
2024/01/21 02:02:42;;;;;;;7.72;4.32;;;1.00;73.70;;;;;;4988605;28;20022;-66
2024/01/21 02:05:08;;;;;;;8.10;4.90;;;0.90;73.60;;;;;;4987283;28;20164;-65
2024/01/21 02:07:34;;;;;;;8.30;4.30;;;0.90;73.50;;;;;;4982967;28;20133;-67
2024/01/21 02:10:01;;;;;;;9.05;4.80;;;0.90;73.60;;;;;;4985600;28;20027;-68
2024/01/21 02:12:27;;;;;;;6.45;3.85;;;0.90;73.20;;;;;;4988392;28;20031;-65
2024/01/21 02:14:53;;;;;;;7.63;3.88;;;0.80;73.30;;;;;;4989854;28;20173;-64
2024/01/21 02:17:19;;;;;;;8.60;5.07;;;0.80;73.50;;;;;;4988971;28;20029;-66
2024/01/21 02:19:45;;;;;;;7.18;4.32;;;0.80;72.90;;;;;;4989026;28;20385;-65
2024/01/21 02:22:12;;;;;;;8.40;4.28;;;0.90;73.30;;;;;;4986437;28;20627;-66
2024/01/21 02:24:38;;;;;;;6.78;3.80;;;0.90;73.50;;;;;;4988116;28;20042;-68
2024/01/21 02:27:04;;;;;;;5.93;3.22;;;0.90;73.60;;;;;;4988226;28;20022;-66
2024/01/21 02:29:30;;;;;;;7.65;4.07;;;0.90;73.60;;;;;;4990124;28;20034;-64
2024/01/21 02:31:57;;;;;;;6.00;3.65;;;0.90;73.50;;;;;;4991625;28;20032;-66
2024/01/21 02:34:22;;;;;;;5.50;3.10;;;0.90;73.60;;;;;;4992697;28;20145;-66
2024/01/21 02:36:48;;;;;;;6.28;3.38;;;1.00;73.60;;;;;;4990057;28;20105;-66
2024/01/21 02:39:14;;;;;;;6.68;3.70;;;1.00;73.40;;;;;;4992424;28;20092;-66
2024/01/21 02:41:39;;;;;;;6.30;3.75;;;0.90;73.10;;;;;;4987813;28;20469;-65
2024/01/21 02:44:05;;;;;;;6.75;4.00;;;0.90;73.20;;;;;;4987226;28;20493;-65
2024/01/21 02:46:30;;;;;;;6.75;3.63;;;0.80;73.30;;;;;;4989103;28;20477;-67
2024/01/21 02:48:57;;;;;;;6.57;3.58;;;0.80;74.10;;;;;;4990914;28;20125;-68
2024/01/21 02:51:23;;;;;;;8.85;4.72;;;0.80;73.50;;;;;;4989366;28;20123;-66
2024/01/21 02:53:50;;;;;;;6.72;3.85;;;0.80;73.60;;;;;;4989137;28;20062;-66
2024/01/21 02:56:23;;;;;;;7.55;3.97;;;0.80;73.60;;;;;;4988072;28;20102;-65
2024/01/21 02:58:52;;;;;;;6.80;3.92;;;0.90;73.60;;;;;;4990385;28;20057;-66
2024/01/21 03:01:19;;;;;;;6.05;3.38;;;0.90;73.50;;;;;;4987645;28;20026;-67
2024/01/21 03:03:45;;;;;;;6.40;3.72;;;0.90;73.40;;;;;;4989405;28;20034;-68
2024/01/21 03:06:11;;;;;;;6.95;4.05;;;0.90;72.70;;;;;;4989292;28;20023;-65
2024/01/21 03:08:38;;;;;;;6.30;3.55;;;0.90;72.90;;;;;;4988435;28;20021;-67
2024/01/21 03:11:04;;;;;;;6.88;3.80;;;0.90;73.10;;;;;;4989022;28;20026;-65
2024/01/21 03:13:29;;;;;;;5.95;3.72;;;0.90;73.10;;;;;;4989332;28;20034;-66
2024/01/21 03:15:55;;;;;;;6.22;3.65;;;0.90;72.80;;;;;;4989856;28;20105;-66
2024/01/21 03:18:21;;;;;;;5.82;3.58;;;1.00;72.80;;;;;;4986894;28;20026;-66
2024/01/21 03:20:47;;;;;;;5.68;2.88;;;1.00;72.80;;;;;;4989171;28;20026;-66
2024/01/21 03:23:13;;;;;;;6.30;3.35;;;1.00;72.90;;;;;;4988179;28;20019;-67
2024/01/21 03:25:38;;;;;;;6.45;3.67;;;1.00;72.90;;;;;;4988302;28;20592;-67
2024/01/21 03:28:04;;;;;;;5.13;3.05;;;1.10;72.60;;;;;;4984316;28;20109;-67
2024/01/21 03:30:30;;;;;;;5.55;3.20;;;1.00;72.40;;;;;;4989729;28;20030;-67
2024/01/21 03:32:57;;;;;;;5.05;3.05;;;1.10;72.80;;;;;;4987571;28;20022;-66
2024/01/21 03:35:22;;;;;;;7.07;4.07;;;1.00;72.40;;;;;;4991150;28;20104;-68
2024/01/21 03:37:48;;;;;;;6.22;3.60;;;1.10;72.50;;;;;;4988786;28;20030;-68
2024/01/21 03:40:14;;;;;;;5.88;3.72;;;1.00;72.10;;;;;;4987708;28;20022;-66
2024/01/21 03:42:39;;;;;;;5.28;3.40;;;1.10;72.40;;;;;;4989803;28;20493;-66
2024/01/21 03:45:07;;;;;;;5.65;3.40;;;1.10;72.20;;;;;;4988378;28;20035;-67
2024/01/21 03:47:34;;;;;;;6.53;3.40;;;1.10;72.20;;;;;;4988247;28;20031;-65
2024/01/21 03:50:00;;;;;;;6.68;3.50;;;1.10;71.90;;;;;;4987253;28;20119;-65
2024/01/21 03:52:26;;;;;;;7.00;3.92;;;1.10;72.30;;;;;;4990855;28;20520;-68
2024/01/21 03:54:53;;;;;;;6.07;3.25;;;1.20;72.10;;;;;;4986980;28;20031;-68
2024/01/21 03:57:18;;;;;;;6.65;3.10;;;1.10;71.70;;;;;;4986104;28;20014;-68
2024/01/21 03:59:44;;;;;;;5.65;3.53;;;1.20;72.10;;;;;;4988752;28;20049;-68
2024/01/21 04:02:09;;;;;;;5.00;3.20;;;1.20;72.00;;;;;;4985708;28;20081;-64
2024/01/21 04:04:35;;;;;;;5.65;3.20;;;1.20;71.80;;;;;;4986780;28;20023;-70
2024/01/21 04:07:00;;;;;;;5.90;3.65;;;1.20;72.10;;;;;;4988531;28;20034;-65
2024/01/21 04:09:26;;;;;;;4.75;3.13;;;1.20;71.80;;;;;;4989355;28;20030;-65
2024/01/21 04:11:51;;;;;;;4.97;2.90;;;1.20;72.00;;;;;;4987203;28;20026;-68
2024/01/21 04:14:17;;;;;;;6.32;3.40;;;1.20;72.00;;;;;;4989967;28;20019;-70
2024/01/21 04:16:43;;;;;;;4.55;2.70;;;1.30;72.00;;;;;;4990527;28;20046;-66
2024/01/21 04:19:09;;;;;;;3.53;2.40;;;1.30;72.00;;;;;;4992862;28;20073;-65
2024/01/21 04:21:38;;;;;;;4.85;2.70;;;1.30;72.00;;;;;;4989463;28;20034;-68
2024/01/21 04:24:04;;;;;;;5.53;3.25;;;1.30;71.80;;;;;;4993552;28;20018;-66
2024/01/21 04:26:33;;;;;;;5.05;2.90;;;1.30;71.70;;;;;;4990009;28;20778;-65
2024/01/21 04:28:59;;;;;;;4.85;2.88;;;1.30;71.70;;;;;;4994783;28;20022;-65
2024/01/21 04:31:24;;;;;;;3.47;2.15;;;1.20;71.30;;;;;;4992051;28;20452;-66
2024/01/21 04:33:50;;;;;;;4.22;2.42;;;1.20;71.70;;;;;;4995367;28;20450;-66
2024/01/21 04:36:19;;;;;;;4.47;2.55;;;1.20;71.90;;;;;;4993549;28;20124;-66
2024/01/21 04:38:46;;;;;;;4.28;2.38;;;1.20;72.10;;;;;;4989885;28;20030;-66
2024/01/21 04:41:13;;;;;;;3.60;2.42;;;1.20;72.10;;;;;;4988691;28;20022;-66
2024/01/21 04:43:39;;;;;;;5.78;2.80;;;1.30;71.60;;;;;;4990780;28;20054;-66
2024/01/21 04:46:05;;;;;;;4.40;2.67;;;1.20;71.80;;;;;;4990422;28;20026;-65
2024/01/21 04:48:30;;;;;;;4.97;2.95;;;1.20;71.90;;;;;;4992087;28;20412;-67
2024/01/21 04:50:56;;;;;;;5.57;2.95;;;1.20;71.80;;;;;;4991587;28;20088;-68
2024/01/21 04:53:21;;;;;;;4.38;2.65;;;1.20;71.80;;;;;;4986444;28;20034;-66
2024/01/21 04:55:47;;;;;;;3.45;2.50;;;1.30;71.70;;;;;;4988422;28;20026;-65
2024/01/21 04:58:12;;;;;;;3.67;2.40;;;1.30;71.60;;;;;;4987434;28;20128;-65
2024/01/21 05:00:38;;;;;;;4.38;2.45;;;1.30;71.70;;;;;;4990426;28;20018;-69
2024/01/21 05:03:04;;;;;;;3.75;2.28;;;1.40;71.70;;;;;;4992058;28;20105;-66
2024/01/21 05:05:29;;;;;;;4.50;2.72;;;1.40;71.60;;;;;;4989676;28;20204;-69
2024/01/21 05:07:55;;;;;;;4.10;2.20;;;1.40;71.40;;;;;;4988573;28;20027;-70
2024/01/21 05:10:20;;;;;;;5.22;3.33;;;1.50;71.50;;;;;;4987507;28;20420;-67
2024/01/21 05:12:46;;;;;;;5.40;3.20;;;1.50;70.70;;;;;;4984603;28;20030;-67
2024/01/21 05:15:11;;;;;;;4.88;2.75;;;1.50;70.30;;;;;;4981393;28;20552;-67
2024/01/21 05:17:37;;;;;;;6.57;3.30;;;1.60;70.70;;;;;;4983512;28;20018;-66
2024/01/21 05:20:03;;;;;;;5.10;2.97;;;1.60;70.10;;;;;;4985462;28;20018;-65
2024/01/21 05:22:29;;;;;;;4.85;3.13;;;1.60;70.30;;;;;;4984821;28;20042;-68
2024/01/21 05:24:55;;;;;;;6.40;3.40;;;1.70;69.30;;;;;;4983714;28;20484;-67
2024/01/21 05:27:21;;;;;;;5.18;3.30;;;1.70;68.70;;;;;;4984908;28;20046;-69
2024/01/21 05:29:47;;;;;;;5.38;3.00;;;1.70;69.10;;;;;;4984769;28;20496;-64
2024/01/21 05:32:13;;;;;;;4.18;2.83;;;1.80;69.10;;;;;;4985781;28;20035;-64
2024/01/21 05:34:38;;;;;;;6.50;3.22;;;1.80;68.70;;;;;;4984865;28;20044;-66
2024/01/21 05:37:04;;;;;;;4.82;2.70;;;1.80;68.70;;;;;;4985006;28;20374;-66
2024/01/21 05:39:31;;;;;;;6.95;3.10;;;1.90;68.80;;;;;;4984785;28;20117;-66
2024/01/21 05:42:05;;;;;;;5.45;3.15;;;1.90;68.60;;;;;;4985311;28;20026;-65
2024/01/21 05:44:31;;;;;;;4.95;2.80;;;1.90;68.00;;;;;;4986793;28;20507;-66
2024/01/21 05:46:57;;;;;;;5.07;3.00;;;2.00;68.10;;;;;;4984959;28;20679;-65
2024/01/21 05:49:23;;;;;;;5.70;2.88;;;2.00;67.60;;;;;;4986121;28;20033;-66
2024/01/21 05:51:49;;;;;;;5.22;2.95;;;2.00;67.80;;;;;;4986843;28;20387;-65
2024/01/21 05:54:16;;;;;;;5.65;3.13;;;2.00;67.70;;;;;;4984175;28;20042;-65
2024/01/21 05:56:41;;;;;;;4.85;2.80;;;2.10;67.40;;;;;;4985067;28;20065;-66
2024/01/21 05:59:07;;;;;;;5.72;3.40;;;2.10;67.30;;;;;;4983175;28;20050;-66
2024/01/21 06:01:32;;;;;;;6.97;3.33;;;2.10;66.90;;;;;;4982108;28;20460;-66
2024/01/21 06:03:58;;;;;;;5.13;3.08;;;2.10;66.80;;;;;;4979761;28;20015;-66
2024/01/21 06:06:24;;;;;;;6.43;3.65;;;2.10;66.00;;;;;;4983590;28;20018;-66
2024/01/21 06:08:49;;;;;;;6.32;3.50;;;2.10;66.10;;;;;;4985653;28;20030;-65
2024/01/21 06:11:15;;;;;;;5.53;3.13;;;2.10;65.90;;;;;;4984889;28;20030;-66
2024/01/21 06:13:40;;;;;;;6.13;3.08;;;2.10;65.60;;;;;;4984024;28;20049;-66
2024/01/21 06:16:06;;;;;;;4.65;3.10;;;2.10;66.00;;;;;;4983174;28;20026;-66
2024/01/21 06:18:32;;;;;;;5.18;3.17;;;2.10;66.00;;;;;;4985121;28;20077;-66
2024/01/21 06:20:57;;;;;;;5.32;3.10;;;2.10;66.10;;;;;;4984779;28;20053;-66
2024/01/21 06:23:23;;;;;;;5.80;3.55;;;2.10;66.10;;;;;;4986272;28;20045;-66
2024/01/21 06:25:49;;;;;;;7.07;3.67;;;2.10;66.10;;;;;;4984786;28;20112;-67
2024/01/21 06:28:14;;;;;;;5.93;3.28;;;2.10;65.90;;;;;;4984575;28;20026;-67
2024/01/21 06:30:40;;;;;;;5.78;3.55;;;2.10;66.00;;;;;;4984606;28;20080;-66
2024/01/21 06:33:05;;;;;;;4.53;2.75;;;2.10;66.20;;;;;;4981773;28;20026;-66
2024/01/21 06:35:31;;;;;;;6.75;3.25;;;2.10;66.50;;;;;;4979523;28;20038;-65
2024/01/21 06:37:58;;;;;;;5.15;3.25;;;2.10;66.60;;;;;;4989710;28;20030;-66
2024/01/21 06:40:23;;;;;;;7.47;3.55;;;2.10;66.60;;;;;;4981814;28;20033;-66
2024/01/21 06:42:49;;;;;;;7.07;3.90;;;2.10;66.40;;;;;;4982181;28;20023;-65
2024/01/21 06:45:15;;;;;;;7.03;4.30;;;2.10;66.30;;;;;;4983880;28;20030;-65
2024/01/21 06:47:41;;;;;;;5.40;3.47;;;2.10;66.30;;;;;;4985669;28;20394;-65
2024/01/21 06:50:09;;;;;;;6.00;3.28;;;2.10;66.30;;;;;;4982879;28;20088;-66
2024/01/21 06:52:34;;;;;;;5.28;3.20;;;2.20;66.60;;;;;;4980524;28;20725;-67
2024/01/21 06:55:00;;;;;;;6.30;3.78;;;2.20;66.70;;;;;;4974991;28;20050;-65
2024/01/21 06:57:26;;;;;;;5.45;3.33;;;2.20;66.80;;;;;;4982882;28;20071;-65
2024/01/21 06:59:51;;;;;;;6.00;3.97;;;2.30;66.80;;;;;;4984709;28;20027;-65
2024/01/21 07:02:17;;;;;;;5.72;3.55;;;2.30;66.70;;;;;;4982636;28;20026;-66
2024/01/21 07:04:43;;;;;;;8.13;3.92;;;2.30;66.80;;;;;;4986550;28;20025;-65
2024/01/21 07:07:09;;;;;;;7.53;4.20;;;2.30;66.70;;;;;;4983306;28;20037;-65
2024/01/21 07:09:34;;;;;;;7.65;4.47;;;2.30;66.30;;;;;;4985478;28;20113;-66
2024/01/21 07:12:00;;;;;;;7.60;4.15;;;2.40;66.40;;;;;;4977980;28;20080;-66
2024/01/21 07:14:33;;;;;;;6.25;3.90;;;2.40;66.30;;;;;;4978640;28;20026;-66
2024/01/21 07:16:59;;;;;;;6.35;3.78;;;2.40;66.30;;;;;;4988077;28;20026;-66
2024/01/21 07:19:24;;;;;;;8.13;4.50;;;2.50;66.50;;;;;;4983090;28;20358;-66
2024/01/21 07:21:50;;;;;;;8.52;4.60;;;2.50;66.30;;;;;;4985371;28;20041;-66
2024/01/21 07:24:16;;;;;;;7.00;4.18;;;2.50;66.20;;;;;;4983491;28;20030;-66
2024/01/21 07:26:41;;;;;;;6.38;3.83;;;2.50;66.10;;;;;;4982474;28;20165;-67
2024/01/21 07:29:07;;;;;;;8.45;4.40;;;2.50;66.00;;;;;;4984889;28;20117;-67
2024/01/21 07:31:32;;;;;;;6.82;3.70;;;2.50;65.80;;;;;;5010284;28;20125;-67
2024/01/21 07:33:58;;;;;;;7.93;4.07;;;2.50;66.40;;;;;;4983325;28;20034;-68
2024/01/21 07:36:23;;;;;;;7.47;4.10;;;2.60;65.90;;;;;;4982949;28;20106;-67
2024/01/21 07:38:49;;;;;;;8.20;4.18;;;2.60;65.70;;;;;;4985855;28;20715;-67
2024/01/21 07:41:14;;;;;;;6.40;3.67;;;2.60;65.80;;;;;;4983241;28;20037;-67
2024/01/21 07:43:40;;;;;;;8.30;4.35;;;2.70;66.00;;;;;;4983171;28;20520;-67
2024/01/21 07:46:06;;;;;;;6.68;3.85;;;2.70;65.80;;;;;;4986293;28;20061;-67
2024/01/21 07:48:32;;;;;;;7.20;4.45;;;2.70;65.60;;;;;;4982605;28;20034;-67
2024/01/21 07:50:58;;;;;;;7.28;4.07;;;2.80;65.00;;;;;;4981136;28;20037;-67
2024/01/21 07:53:25;;;;;;;6.95;3.47;;;2.80;64.80;;;;;;4985072;28;20029;-67
2024/01/21 07:55:51;;;;;;;7.50;4.30;;;2.80;64.80;;;;;;4987326;28;20049;-67
2024/01/21 07:58:16;;;;;;;8.30;4.45;;;2.90;64.80;;;;;;4987850;28;20507;-67
2024/01/21 08:00:45;;;;;;;6.13;3.58;;;2.90;64.80;;;;;;4986671;28;20091;-67
2024/01/21 08:03:11;;;;;;;6.57;3.92;;;2.90;64.30;;;;;;4987220;28;20053;-67
2024/01/21 08:05:36;;;;;;;7.85;4.28;;;3.00;63.90;;;;;;4982498;28;21029;-67
2024/01/21 08:08:02;;;;;;;6.45;3.88;;;3.00;63.80;;;;;;4988337;28;20700;-67
2024/01/21 08:10:30;;;;;;;7.05;4.35;;;3.00;63.80;;;;;;4988422;28;20038;-67
2024/01/21 08:12:55;;;;;;;6.15;3.70;;;3.10;63.60;;;;;;4986009;28;20034;-66
2024/01/21 08:15:21;;;;;;;7.03;4.05;;;3.10;63.70;;;;;;4986430;28;20138;-67
2024/01/21 08:17:47;;;;;;;5.75;3.70;;;3.20;63.70;;;;;;4983130;28;20030;-67
2024/01/21 08:20:12;;;;;;;6.55;3.67;;;3.20;63.70;;;;;;5000932;28;20137;-67
2024/01/21 08:22:38;;;;;;;6.65;3.90;;;3.20;63.80;;;;;;4984985;28;20026;-67
2024/01/21 08:25:05;;;;;;;6.68;3.55;;;3.20;63.60;;;;;;5015694;28;20034;-66
2024/01/21 08:27:31;;;;;;;9.10;4.00;;;3.20;63.70;;;;;;4986091;28;20030;-67
2024/01/21 08:29:56;;;;;;;9.73;4.70;;;3.30;63.80;;;;;;4984378;28;20034;-65
2024/01/21 08:32:22;;;;;;;6.28;3.75;;;3.30;63.20;;;;;;4981654;28;20069;-65
2024/01/21 08:34:48;;;;;;;10.07;4.82;;;3.20;63.40;;;;;;4982932;28;20073;-65
2024/01/21 08:37:14;;;;;;;6.60;4.40;;;3.30;63.10;;;;;;4990639;28;20081;-66
2024/01/21 08:39:40;;;;;;;5.90;3.30;;;3.30;62.80;;;;;;4986748;28;20665;-66
2024/01/21 08:42:05;;;;;;;6.22;3.20;;;3.30;63.40;;;;;;4985129;28;20034;-66
2024/01/21 08:44:31;;;;;;;5.85;3.38;;;3.40;63.70;;;;;;4983375;28;20121;-66
2024/01/21 08:46:59;;;;;;;5.65;2.97;;;3.40;63.40;;;;;;4987203;28;20113;-66
2024/01/21 08:49:26;;;;;;;7.85;3.63;;;3.50;63.80;;;;;;4984479;28;20030;-66
2024/01/21 08:51:51;;;;;;;5.60;3.10;;;3.50;64.30;;;;;;4982986;28;20043;-66
2024/01/21 08:54:17;;;;;;;6.75;3.92;;;3.60;64.00;;;;;;4983050;28;20568;-66
2024/01/21 08:56:42;;;;;;;7.40;4.50;;;3.60;64.70;;;;;;4983382;28;20052;-65
2024/01/21 08:59:08;;;;;;;7.22;3.47;;;3.60;63.40;;;;;;4984812;28;20031;-66
2024/01/21 09:01:34;;;;;;;7.05;3.80;;;3.60;63.60;;;;;;4984274;28;20068;-66
2024/01/21 09:04:00;;;;;;;5.75;3.30;;;3.60;63.80;;;;;;4983951;28;20080;-66
2024/01/21 09:06:26;;;;;;;6.40;3.35;;;3.60;64.00;;;;;;4983755;28;20024;-66
2024/01/21 09:08:53;;;;;;;6.50;3.45;;;3.70;64.10;;;;;;4981944;28;20092;-66
2024/01/21 09:11:20;;;;;;;5.43;3.50;;;3.70;64.00;;;;;;4981745;28;20076;-66
2024/01/21 09:13:46;;;;;;;6.90;3.67;;;3.80;64.20;;;;;;4982225;28;21280;-65
2024/01/21 09:16:16;;;;;;;7.13;3.65;;;3.80;64.30;;;;;;4983897;28;20026;-66
2024/01/21 09:18:42;;;;;;;7.55;4.22;;;3.80;64.10;;;;;;4983349;28;20030;-66
2024/01/21 09:21:08;;;;;;;8.05;4.20;;;3.80;64.00;;;;;;4983434;28;20031;-66
2024/01/21 09:23:34;;;;;;;6.45;3.80;;;3.80;64.00;;;;;;4982845;28;20034;-65
2024/01/21 09:26:01;;;;;;;5.72;3.08;;;3.90;64.40;;;;;;4981873;28;20087;-66
2024/01/21 09:28:27;;;;;;;5.47;3.30;;;3.90;64.60;;;;;;4981775;28;20184;-65
2024/01/21 09:30:53;;;;;;;6.60;3.70;;;3.90;64.70;;;;;;4981570;28;20042;-65
2024/01/21 09:33:20;;;;;;;6.47;3.75;;;4.00;64.90;;;;;;4980412;28;20064;-66
2024/01/21 09:35:46;;;;;;;7.13;4.10;;;3.90;64.90;;;;;;4980661;28;20030;-66
2024/01/21 09:38:14;;;;;;;7.72;4.10;;;3.90;65.10;;;;;;4982208;28;20038;-65
2024/01/21 09:40:40;;;;;;;6.70;3.88;;;3.90;65.40;;;;;;4982868;28;20033;-65
2024/01/21 09:43:06;;;;;;;5.30;3.45;;;3.90;65.50;;;;;;4984417;28;20030;-66
2024/01/21 09:45:34;;;;;;;5.65;3.35;;;4.00;65.80;;;;;;4980376;28;20105;-66
2024/01/21 09:48:00;;;;;;;5.88;3.15;;;4.00;66.10;;;;;;4982017;28;20052;-66
2024/01/21 09:50:26;;;;;;;6.32;3.72;;;4.00;66.30;;;;;;4982141;28;20077;-68
2024/01/21 09:52:52;;;;;;;6.88;3.63;;;4.00;66.50;;;;;;4982314;28;20030;-66
2024/01/21 09:55:18;;;;;;;7.68;3.92;;;4.00;66.80;;;;;;4985977;28;20034;-65
2024/01/21 09:57:44;;;;;;;5.60;3.50;;;4.00;67.10;;;;;;4983876;28;20511;-65
2024/01/21 10:00:13;;;;;;;6.40;3.63;;;4.10;67.30;;;;;;4982595;28;20617;-65
2024/01/21 10:02:42;;;;;;;7.07;3.90;;;4.10;67.50;;;;;;4981992;28;20440;-66
2024/01/21 10:05:08;;;;;;;7.63;4.00;;;4.00;68.00;;;;;;4982496;28;20477;-65
2024/01/21 10:07:37;;;;;;;7.65;4.10;;;4.00;68.30;;;;;;4981442;28;20018;-66
2024/01/21 10:10:03;;;;;;;6.32;3.83;;;4.00;68.70;;;;;;4981782;28;20117;-65
2024/01/21 10:12:28;;;;;;;6.28;3.30;;;4.00;69.30;;;;;;4982937;28;20134;-65
2024/01/21 10:14:54;;;;;;;6.15;3.90;;;4.00;69.60;;;;;;4982019;28;20041;-65
2024/01/21 10:17:24;;;;;;;7.45;3.78;;;4.10;70.10;;;;;;4981342;28;20069;-65
2024/01/21 10:19:52;;;;;;;5.75;3.42;;;4.20;70.10;;;;;;4981300;28;20042;-66
2024/01/21 10:22:18;;;;;;;6.32;3.92;;;4.20;70.20;;;;;;4982825;28;20062;-66
2024/01/21 10:24:46;;;;;;;6.22;3.20;;;4.20;70.40;;;;;;4979535;28;20022;-67
2024/01/21 10:27:18;;;;;;;6.07;3.70;;;4.30;70.60;;;;;;4981661;28;20079;-66
2024/01/21 10:29:45;;;;;;;;;;;4.30;71.00;;;;;;4983872;28;20121;-68
2024/01/21 10:32:12;;;;;;;5.88;3.58;;;4.30;71.40;;;;;;4981081;28;19956;-65
2024/01/21 10:34:40;;;;;;;7.60;4.10;;;4.30;71.70;;;;;;4982002;28;20034;-65
2024/01/21 10:37:07;;;;;;;5.18;3.03;;;4.30;72.50;;;;;;4983846;28;20077;-65
2024/01/21 10:39:35;;;;;;;5.95;3.30;;;4.30;72.70;;;;;;4985268;28;20104;-65
2024/01/21 10:42:01;;;;;;;5.05;3.28;;;4.30;72.90;;;;;;4981690;28;20072;-67
2024/01/21 10:44:27;;;;;;;5.15;3.47;;;4.40;73.10;;;;;;4980861;28;20034;-68
2024/01/21 10:46:54;;;;;;;7.15;4.07;;;4.40;73.40;;;;;;4982134;28;20042;-67
2024/01/21 10:49:20;;;;;;;5.63;3.65;;;4.40;74.30;;;;;;4979616;28;20045;-66
2024/01/21 10:51:47;;;;;;;6.05;3.58;;;4.40;74.20;;;;;;4980353;28;20037;-66
2024/01/21 10:54:16;;;;;;;5.22;3.30;;;4.40;74.40;;;;;;4979526;28;20045;-70
2024/01/21 10:56:43;;;;;;;6.55;3.65;;;4.40;74.60;;;;;;4980711;28;20694;-65
2024/01/21 10:59:10;;;;;;;5.63;3.10;;;4.40;75.30;;;;;;4981672;28;20125;-66
2024/01/21 11:01:36;;;;;;;5.50;3.70;;;4.40;75.70;;;;;;4982454;28;20026;-67
2024/01/21 11:04:05;;;;;;;7.18;3.30;;;4.40;76.00;;;;;;4979968;28;20109;-69
2024/01/21 11:06:31;;;;;;;6.82;4.15;;;4.50;76.60;;;;;;4977338;28;20038;-65
2024/01/21 11:09:01;;;;;;;6.13;3.70;;;4.50;76.90;;;;;;4982430;28;20607;-65
2024/01/21 11:11:27;;;;;;;6.20;3.72;;;4.50;77.30;;;;;;4981185;28;20062;-66
2024/01/21 11:13:53;;;;;;;6.18;3.50;;;4.50;77.60;;;;;;4981978;28;20061;-66
2024/01/21 11:16:25;;;;;;;6.03;3.17;;;4.50;78.00;;;;;;4983951;28;20019;-65
2024/01/21 11:18:51;;;;;;;6.18;3.63;;;4.50;78.10;;;;;;4981577;28;20179;-66
2024/01/21 11:21:20;;;;;;;5.93;3.13;;;4.60;78.00;;;;;;4982697;28;20130;-66
2024/01/21 11:23:57;;;;;;;6.18;3.83;;;4.60;78.30;;;;;;4982171;28;20485;-66
2024/01/21 11:26:23;;;;;;;7.45;3.97;;;4.60;78.70;;;;;;4984349;28;20022;-66
2024/01/21 11:28:49;;;;;;;8.95;4.40;;;4.60;78.90;;;;;;4982256;28;20030;-66
2024/01/21 11:31:20;;;;;;;7.35;4.35;;;4.60;79.10;;;;;;4983484;28;20116;-66
2024/01/21 11:34:09;;;;;;;8.20;4.03;;;4.70;79.30;;;;;;4979536;28;20036;-66
2024/01/21 11:36:38;;;;;;;6.95;4.00;;;4.70;79.50;;;;;;4984186;28;20038;-66
2024/01/21 11:39:05;;;;;;;6.57;3.75;;;4.70;79.70;;;;;;4983444;28;20030;-67
2024/01/21 11:41:42;;;;;;;6.00;3.70;;;4.70;79.90;;;;;;4982205;28;20365;-67
2024/01/21 11:44:19;;;;;;;7.25;4.07;;;4.70;79.90;;;;;;4986259;28;20100;-67
2024/01/21 11:46:45;;;;;;;4.03;2.85;;;4.70;80.20;;;;;;4982390;28;20065;-67
2024/01/21 11:49:11;;;;;;;6.10;3.60;;;4.70;80.00;;;;;;4984638;28;20404;-67
2024/01/21 11:51:38;;;;;;;5.93;3.15;;;4.80;80.10;;;;;;4980261;28;20086;-67
2024/01/21 11:54:04;;;;;;;6.78;4.10;;;4.80;80.10;;;;;;4979552;28;20038;-67
2024/01/21 11:56:30;;;;;;;6.65;4.25;;;4.80;80.30;;;;;;4981706;28;20058;-67
2024/01/21 11:58:57;;;;;;;9.18;4.70;;;4.80;80.50;;;;;;4979319;28;20541;-67
2024/01/21 12:01:24;;;;;;;6.30;3.65;;;4.90;80.80;;;;;;4983841;28;20034;-67
2024/01/21 12:03:49;;;;;;;5.65;3.33;;;4.80;80.60;;;;;;4980930;28;20084;-67
2024/01/21 12:06:16;;;;;;;5.65;3.40;;;4.90;80.60;;;;;;4982201;28;20018;-67
2024/01/21 12:08:45;;;;;;;7.75;4.65;;;4.90;80.60;;;;;;4977422;28;20031;-67
2024/01/21 12:11:13;;;;;;;8.57;4.68;;;4.90;80.80;;;;;;4980742;28;20063;-67
2024/01/21 12:13:40;;;;;;;9.73;4.78;;;4.90;80.80;;;;;;4986881;28;20389;-67
2024/01/21 12:16:07;;;;;;;6.00;3.67;;;4.90;80.90;;;;;;4979532;28;20054;-67
2024/01/21 12:18:40;;;;;;;7.60;3.90;;;4.90;80.80;;;;;;4983654;28;20038;-67
2024/01/21 12:21:06;;;;;;;6.30;3.85;;;5.00;80.80;;;;;;4980766;28;20018;-67
2024/01/21 12:23:32;;;;;;;8.30;4.65;;;5.00;80.60;;;;;;4983888;28;20090;-67
2024/01/21 12:25:59;;;;;;;6.90;4.03;;;5.00;81.00;;;;;;4982112;28;20122;-67
2024/01/21 12:28:24;;;;;;;6.60;3.90;;;5.00;80.90;;;;;;4979428;28;20034;-67
2024/01/21 12:30:50;;;;;;;9.02;4.47;;;5.00;80.80;;;;;;4987668;28;20022;-66
2024/01/21 12:33:16;;;;;;;5.93;3.92;;;5.00;80.90;;;;;;4983953;28;20027;-67
2024/01/21 12:35:42;;;;;;;7.10;4.32;;;5.00;80.80;;;;;;4981883;28;20038;-66
2024/01/21 12:38:08;;;;;;;8.50;4.50;;;5.00;80.90;;;;;;4985063;28;20079;-67
2024/01/21 12:40:34;;;;;;;7.82;4.20;;;5.00;81.00;;;;;;4986774;28;20027;-66
2024/01/21 12:42:59;;;;;;;7.18;4.25;;;5.00;81.00;;;;;;4989767;28;20428;-66
2024/01/21 12:45:25;;;;;;;6.15;3.50;;;5.10;81.10;;;;;;4986018;28;20030;-67
2024/01/21 12:47:51;;;;;;;7.10;4.32;;;5.10;81.00;;;;;;4985180;28;20129;-67
2024/01/21 12:50:17;;;;;;;7.07;4.05;;;5.10;81.20;;;;;;4985823;28;20848;-67
2024/01/21 12:52:43;;;;;;;7.43;4.07;;;5.10;81.20;;;;;;5015547;28;20117;-66